createdAt,value
2022-08-14T00:01:11.537Z,19.13
2022-08-14T00:04:32.144Z,19.02
2022-08-14T00:07:41.958Z,19.04
2022-08-14T00:10:51.513Z,19.05
2022-08-14T00:13:55.263Z,19.06
2022-08-14T00:16:57.402Z,18.95
2022-08-14T00:20:03.813Z,18.55
2022-08-14T00:23:12.161Z,18.38
2022-08-14T00:26:23.147Z,18.31
2022-08-14T00:29:27.087Z,18.25
2022-08-14T00:32:51.792Z,17.72
2022-08-14T00:36:35.515Z,17.93
2022-08-14T00:39:17.957Z,17.95
2022-08-14T00:42:54.920Z,18.03
2022-08-14T00:45:52.562Z,18.22
2022-08-14T00:48:54.999Z,18.68
2022-08-14T00:52:00.552Z,18.97
2022-08-14T00:55:03.024Z,19.05
2022-08-14T00:58:27.905Z,19.09
2022-08-14T01:01:36.081Z,19.17
2022-08-14T01:04:53.994Z,19.17
2022-08-14T01:07:58.536Z,19.19
2022-08-14T01:11:00.985Z,18.59
2022-08-14T01:14:25.382Z,18.87
2022-08-14T01:17:50.005Z,18.42
2022-08-14T01:21:07.346Z,18.20
2022-08-14T01:24:10.916Z,18.58
2022-08-14T01:27:22.372Z,18.67
2022-08-14T01:30:27.478Z,18.75
2022-08-14T01:33:30.479Z,18.30
2022-08-14T01:36:46.983Z,18.37
2022-08-14T01:39:49.875Z,18.33
2022-08-14T01:42:56.622Z,18.40
2022-08-14T01:46:06.927Z,18.46
2022-08-14T01:49:11.322Z,18.37
2022-08-14T01:52:33.680Z,18.91
2022-08-14T01:55:40.522Z,18.86
2022-08-14T01:58:57.433Z,18.37
2022-08-14T02:02:04.080Z,18.68
2022-08-14T02:05:06.474Z,18.33
2022-08-14T02:08:10.350Z,18.50
2022-08-14T02:11:22.123Z,17.85
2022-08-14T02:14:31.019Z,18.56
2022-08-14T02:17:34.292Z,18.46
2022-08-14T02:20:36.391Z,18.51
2022-08-14T02:23:39.792Z,18.72
2022-08-14T02:28:18.924Z,18.89
2022-08-14T02:30:10.535Z,18.63
2022-08-14T02:33:15.907Z,18.79
2022-08-14T02:37:04.765Z,18.88
2022-08-14T02:39:45.634Z,18.27
2022-08-14T02:42:54.663Z,18.52
2022-08-14T02:45:59.886Z,18.81
2022-08-14T02:49:06.391Z,18.75
2022-08-14T02:52:26.923Z,18.76
2022-08-14T02:55:33.044Z,18.40
2022-08-14T02:58:41.796Z,18.02
2022-08-14T03:01:50.362Z,17.80
2022-08-14T03:04:55.706Z,17.61
2022-08-14T03:08:09.771Z,18.12
2022-08-14T03:11:13.693Z,18.18
2022-08-14T03:14:18.004Z,18.05
2022-08-14T03:17:20.757Z,18.37
2022-08-14T03:20:24.810Z,18.57
2022-08-14T03:23:28.130Z,18.72
2022-08-14T03:26:31.912Z,18.55
2022-08-14T03:29:34.659Z,18.75
2022-08-14T03:32:37.463Z,18.79
2022-08-14T03:36:05.513Z,18.73
2022-08-14T03:39:13.382Z,18.97
2022-08-14T03:42:24.114Z,18.94
2022-08-14T03:45:34.744Z,18.30
2022-08-14T03:48:40.464Z,18.20
2022-08-14T03:51:42.723Z,18.56
2022-08-14T03:54:52.302Z,18.65
2022-08-14T03:57:55.959Z,18.30
2022-08-14T04:01:00.461Z,18.35
2022-08-14T04:04:07.891Z,17.91
2022-08-14T04:07:10.826Z,18.06
2022-08-14T04:10:13.138Z,18.39
2022-08-14T04:13:20.330Z,17.81
2022-08-14T04:16:26.159Z,17.47
2022-08-14T04:19:36.446Z,17.64
2022-08-14T04:22:42.655Z,18.23
2022-08-14T04:25:46.529Z,17.53
2022-08-14T04:29:07.566Z,17.59
2022-08-14T04:32:59.877Z,18.29
2022-08-14T04:35:50.721Z,17.94
2022-08-14T04:39:17.945Z,17.47
2022-08-14T04:42:38.952Z,17.05
2022-08-14T04:45:51.023Z,17.70
2022-08-14T04:48:55.519Z,17.90
2022-08-14T04:52:15.234Z,17.62
2022-08-14T04:55:21.479Z,17.72
2022-08-14T04:58:32.390Z,17.44
2022-08-14T05:01:39.914Z,17.33
2022-08-14T05:04:45.328Z,17.17
2022-08-14T05:08:09.559Z,16.86
2022-08-14T05:11:12.194Z,17.36
2022-08-14T05:14:43.327Z,17.63
2022-08-14T05:17:44.293Z,17.52
2022-08-14T05:21:54.460Z,17.92
2022-08-14T05:24:25.406Z,17.47
2022-08-14T05:27:30.904Z,17.18
2022-08-14T05:30:34.161Z,17.34
2022-08-14T05:33:37.098Z,17.01
2022-08-14T05:36:39.463Z,17.47
2022-08-14T05:39:41.691Z,17.30
2022-08-14T05:42:46.527Z,17.85
2022-08-14T05:45:55.069Z,17.45
2022-08-14T05:48:58.658Z,17.86
2022-08-14T05:52:02.352Z,17.74
2022-08-14T05:55:09.582Z,17.77
2022-08-14T05:58:11.711Z,16.84
2022-08-14T06:01:13.871Z,16.93
2022-08-14T06:04:16.638Z,17.41
2022-08-14T06:07:18.762Z,17.77
2022-08-14T06:10:21.291Z,18.20
2022-08-14T06:13:31.552Z,18.00
2022-08-14T06:16:45.213Z,17.75
2022-08-14T06:19:47.379Z,17.95
2022-08-14T06:22:51.411Z,17.56
2022-08-14T06:25:53.649Z,18.10
2022-08-14T06:28:55.773Z,18.16
2022-08-14T06:32:00.638Z,17.93
2022-08-14T06:35:20.954Z,18.02
2022-08-14T06:38:24.886Z,18.11
2022-08-14T06:41:56.813Z,17.94
2022-08-14T06:44:49.391Z,18.42
2022-08-14T06:47:55.425Z,17.46
2022-08-14T06:51:01.133Z,17.87
2022-08-14T06:54:03.315Z,18.46
2022-08-14T06:57:05.500Z,18.47
2022-08-14T07:00:22.320Z,18.31
2022-08-14T07:03:48.554Z,18.06
2022-08-14T07:06:54.797Z,18.56
2022-08-14T07:10:00.987Z,18.43
2022-08-14T07:13:04.246Z,19.05
2022-08-14T07:16:07.115Z,18.48
2022-08-14T07:19:09.960Z,19.07
2022-08-14T07:22:17.410Z,19.52
2022-08-14T07:25:22.794Z,19.47
2022-08-14T07:28:43.927Z,19.30
2022-08-14T07:31:46.412Z,19.77
2022-08-14T07:34:49.252Z,19.90
2022-08-14T07:37:52.656Z,19.41
2022-08-14T07:40:54.907Z,19.59
2022-08-14T07:43:57.913Z,20.00
2022-08-14T07:47:00.720Z,19.98
2022-08-14T07:50:08.379Z,20.17
2022-08-14T07:53:14.196Z,20.35
2022-08-14T07:56:44.285Z,20.28
2022-08-14T07:59:44.341Z,20.75
2022-08-14T08:02:55.839Z,21.31
2022-08-14T08:05:59.899Z,21.36
2022-08-14T08:09:02.904Z,21.35
2022-08-14T08:12:09.262Z,21.21
2022-08-14T08:15:17.075Z,21.44
2022-08-14T08:18:20.377Z,21.67
2022-08-14T08:21:33.297Z,21.52
2022-08-14T08:24:37.789Z,22.01
2022-08-14T08:27:44.534Z,21.70
2022-08-14T08:30:53.267Z,21.64
2022-08-14T08:33:57.671Z,21.69
2022-08-14T08:37:03.871Z,21.77
2022-08-14T08:40:09.408Z,22.28
2022-08-14T08:43:25.839Z,22.29
2022-08-14T08:46:27.959Z,22.47
2022-08-14T08:49:48.086Z,22.37
2022-08-14T08:52:55.323Z,22.66
2022-08-14T08:55:57.428Z,23.17
2022-08-14T08:58:59.643Z,23.15
2022-08-14T09:02:06.786Z,23.44
2022-08-14T09:05:12.418Z,23.40
2022-08-14T09:08:30.512Z,23.18
2022-08-14T09:11:34.135Z,23.32
2022-08-14T09:14:38.339Z,23.16
2022-08-14T09:17:42.780Z,23.92
2022-08-14T09:20:47.747Z,24.07
2022-08-14T09:24:28.221Z,24.19
2022-08-14T09:27:22.211Z,24.38
2022-08-14T09:30:33.036Z,24.69
2022-08-14T09:33:59.944Z,24.59
2022-08-14T09:37:16.114Z,24.51
2022-08-14T09:40:37.206Z,24.48
2022-08-14T09:44:09.366Z,24.66
2022-08-14T09:47:11.521Z,24.64
2022-08-14T09:50:20.804Z,25.11
2022-08-14T09:54:19.692Z,24.76
2022-08-14T09:57:30.405Z,25.41
2022-08-14T10:00:50.517Z,25.70
2022-08-14T10:03:56.680Z,26.16
2022-08-14T10:07:01.742Z,26.40
2022-08-14T10:10:22.951Z,25.96
2022-08-14T10:13:26.281Z,26.03
2022-08-14T10:16:41.931Z,25.61
2022-08-14T10:19:48.785Z,25.43
2022-08-14T10:23:14.933Z,26.55
2022-08-14T10:26:23.195Z,26.73
2022-08-14T10:29:38.122Z,25.99
2022-08-14T10:32:51.172Z,26.01
2022-08-14T10:35:54.412Z,26.44
2022-08-14T10:38:58.281Z,27.01
2022-08-14T10:42:16.489Z,27.47
2022-08-14T10:45:42.135Z,27.83
2022-08-14T10:49:04.339Z,27.22
2022-08-14T10:52:08.114Z,27.44
2022-08-14T10:55:16.786Z,27.69
2022-08-14T10:58:28.451Z,27.96
2022-08-14T11:01:41.337Z,28.90
2022-08-14T11:04:43.846Z,28.61
2022-08-14T11:07:55.419Z,28.62
2022-08-14T11:11:02.131Z,28.61
2022-08-14T11:14:09.268Z,28.97
2022-08-14T11:17:11.923Z,28.81
2022-08-14T11:20:16.761Z,28.75
2022-08-14T11:23:19.152Z,28.86
2022-08-14T11:26:24.353Z,28.95
2022-08-14T11:29:26.897Z,28.95
2022-08-14T11:32:31.162Z,29.19
2022-08-14T11:35:44.325Z,29.83
2022-08-14T11:38:49.880Z,29.60
2022-08-14T11:41:57.756Z,29.79
2022-08-14T11:45:04.739Z,30.46
2022-08-14T11:49:02.737Z,29.58
2022-08-14T11:51:53.519Z,30.50
2022-08-14T11:54:58.422Z,30.89
2022-08-14T11:58:09.493Z,31.05
2022-08-14T12:01:12.807Z,32.27
2022-08-14T12:04:21.791Z,31.72
2022-08-14T12:07:36.102Z,31.84
2022-08-14T12:10:42.789Z,31.92
2022-08-14T12:13:45.563Z,31.08
2022-08-14T12:17:12.576Z,31.43
2022-08-14T12:20:15.735Z,32.69
2022-08-14T12:23:32.387Z,31.97
2022-08-14T12:26:40.698Z,31.66
2022-08-14T12:29:55.309Z,31.43
2022-08-14T12:32:57.427Z,32.37
2022-08-14T12:36:06.223Z,31.89
2022-08-14T12:39:21.074Z,32.14
2022-08-14T12:42:40.727Z,33.14
2022-08-14T12:45:55.000Z,33.09
2022-08-14T12:49:06.498Z,32.76
2022-08-14T12:52:16.997Z,33.15
2022-08-14T12:55:21.116Z,33.09
2022-08-14T12:58:49.997Z,34.32
2022-08-14T13:02:01.940Z,34.21
2022-08-14T13:05:12.318Z,34.10
2022-08-14T13:08:33.955Z,34.97
2022-08-14T13:11:45.886Z,35.97
2022-08-14T13:14:48.103Z,35.25
2022-08-14T13:17:52.966Z,33.18
2022-08-14T13:21:01.255Z,34.30
2022-08-14T13:24:04.687Z,34.77
2022-08-14T13:27:10.036Z,35.26
2022-08-14T13:30:21.220Z,35.12
2022-08-14T13:33:26.211Z,35.52
2022-08-14T13:36:51.942Z,35.11
2022-08-14T13:39:57.365Z,35.30
2022-08-14T13:42:59.913Z,37.10
2022-08-14T13:46:04.019Z,35.22
2022-08-14T13:49:10.634Z,35.39
2022-08-14T13:52:14.626Z,35.34
2022-08-14T13:55:34.919Z,37.05
2022-08-14T13:58:37.836Z,36.97
2022-08-14T14:01:44.682Z,36.86
2022-08-14T14:04:49.329Z,37.09
2022-08-14T14:07:54.523Z,36.68
2022-08-14T14:10:56.661Z,37.11
2022-08-14T14:14:01.682Z,37.15
2022-08-14T14:17:12.520Z,36.42
2022-08-14T14:20:35.772Z,37.12
2022-08-14T14:23:38.575Z,38.09
2022-08-14T14:26:40.796Z,37.62
2022-08-14T14:29:51.435Z,37.39
2022-08-14T14:33:04.460Z,38.76
2022-08-14T14:36:09.128Z,39.38
2022-08-14T14:39:11.385Z,39.08
2022-08-14T14:42:18.179Z,38.42
2022-08-14T14:45:22.359Z,39.25
2022-08-14T14:48:27.071Z,37.54
2022-08-14T14:51:31.288Z,37.62
2022-08-14T14:54:39.089Z,38.27
2022-08-14T14:57:42.390Z,38.48
2022-08-14T15:00:46.731Z,39.45
2022-08-14T15:03:54.051Z,38.51
2022-08-14T15:06:56.838Z,38.72
2022-08-14T15:09:59.511Z,38.76
2022-08-14T15:13:04.384Z,38.88
2022-08-14T15:16:09.111Z,38.49
2022-08-14T15:19:11.597Z,36.81
2022-08-14T15:22:16.514Z,36.29
2022-08-14T15:25:18.812Z,37.57
2022-08-14T15:28:22.136Z,38.08
2022-08-14T15:31:25.399Z,38.70
2022-08-14T15:34:43.804Z,38.21
2022-08-14T15:37:55.718Z,37.25
2022-08-14T15:41:01.975Z,38.54
2022-08-14T15:44:04.679Z,38.31
2022-08-14T15:47:27.676Z,38.73
2022-08-14T15:50:31.099Z,38.78
2022-08-14T15:53:33.216Z,39.46
2022-08-14T15:56:42.803Z,38.40
2022-08-14T16:00:04.223Z,37.15
2022-08-14T16:03:15.621Z,37.57
2022-08-14T16:06:18.970Z,38.22
2022-08-14T16:09:21.365Z,37.39
2022-08-14T16:12:41.341Z,37.70
2022-08-14T16:15:53.366Z,37.46
2022-08-14T16:18:58.195Z,37.95
2022-08-14T16:22:58.294Z,37.37
2022-08-14T16:25:35.524Z,37.63
2022-08-14T16:28:38.467Z,38.01
2022-08-14T16:31:42.933Z,37.84
2022-08-14T16:34:48.491Z,37.38
2022-08-14T16:40:25.498Z,37.92
2022-08-14T16:41:23.060Z,36.94
2022-08-14T16:44:33.891Z,36.97
2022-08-14T16:47:36.501Z,36.46
2022-08-14T16:50:40.716Z,36.59
2022-08-14T16:53:47.350Z,37.23
2022-08-14T16:56:49.512Z,37.54
2022-08-14T16:59:57.312Z,35.78
2022-08-14T17:03:08.496Z,35.34
2022-08-14T17:06:33.234Z,35.37
2022-08-14T17:09:43.385Z,34.68
2022-08-14T17:12:46.055Z,34.60
2022-08-14T17:16:25.115Z,34.69
2022-08-14T17:19:28.323Z,35.10
2022-08-14T17:22:52.744Z,34.44
2022-08-14T17:25:56.418Z,33.80
2022-08-14T17:29:21.024Z,34.84
2022-08-14T17:32:29.643Z,33.83
2022-08-14T17:35:58.755Z,34.31
2022-08-14T17:39:11.776Z,34.18
2022-08-14T17:42:14.180Z,33.67
2022-08-14T17:45:41.459Z,33.85
2022-08-14T17:49:14.441Z,33.21
2022-08-14T17:52:16.719Z,32.48
2022-08-14T17:56:02.147Z,33.16
2022-08-14T17:58:42.354Z,33.18
2022-08-14T18:01:46.416Z,31.97
2022-08-14T18:04:48.727Z,32.37
2022-08-14T18:08:32.290Z,32.74
2022-08-14T18:11:17.843Z,33.52
2022-08-14T18:14:31.872Z,33.59
2022-08-14T18:17:36.705Z,33.27
2022-08-14T18:21:42.982Z,32.28
2022-08-14T18:24:01.339Z,31.66
2022-08-14T18:27:28.087Z,31.10
2022-08-14T18:30:36.362Z,30.87
2022-08-14T18:34:06.330Z,29.64
2022-08-14T18:37:20.075Z,30.25
2022-08-14T18:40:22.892Z,29.59
2022-08-14T18:43:44.725Z,29.96
2022-08-14T18:47:08.564Z,29.62
2022-08-14T18:50:27.170Z,29.47
2022-08-14T18:53:54.414Z,29.81
2022-08-14T18:57:01.647Z,29.70
2022-08-14T19:00:54.718Z,29.60
2022-08-14T19:03:59.372Z,29.03
2022-08-14T19:07:16.201Z,28.51
2022-08-14T19:10:31.875Z,28.40
2022-08-14T19:13:44.637Z,27.52
2022-08-14T19:16:53.796Z,26.67
2022-08-14T19:20:09.431Z,26.34
2022-08-14T19:23:19.043Z,26.10
2022-08-14T19:26:37.048Z,25.71
2022-08-14T19:29:51.264Z,25.68
2022-08-14T19:32:56.007Z,25.45
2022-08-14T19:36:28.781Z,25.12
2022-08-14T19:39:56.224Z,25.16
2022-08-14T19:42:59.322Z,24.66
2022-08-14T19:46:01.526Z,24.53
2022-08-14T19:49:04.099Z,24.46
2022-08-14T19:52:17.563Z,24.11
2022-08-14T19:55:34.053Z,24.23
2022-08-14T19:58:54.511Z,24.12
2022-08-14T20:01:59.632Z,23.05
2022-08-14T20:05:05.195Z,22.71
2022-08-14T20:09:05.720Z,23.59
2022-08-14T20:11:42.903Z,23.60
2022-08-14T20:14:51.871Z,23.27
2022-08-14T20:17:54.128Z,22.88
2022-08-14T20:20:56.883Z,22.61
2022-08-14T20:24:40.582Z,23.07
2022-08-14T20:27:44.633Z,23.54
2022-08-14T20:30:48.725Z,23.68
2022-08-14T20:34:24.348Z,23.37
2022-08-14T20:37:27.835Z,23.47
2022-08-14T20:40:50.513Z,23.80
2022-08-14T20:44:28.731Z,23.75
2022-08-14T20:47:50.507Z,23.40
2022-08-14T20:50:53.527Z,23.53
2022-08-14T20:53:57.955Z,23.70
2022-08-14T20:57:14.197Z,23.64
2022-08-14T21:00:36.932Z,23.82
2022-08-14T21:03:56.325Z,23.57
2022-08-14T21:07:25.576Z,23.29
2022-08-14T21:10:44.521Z,23.17
2022-08-14T21:14:20.622Z,22.93
2022-08-14T21:17:09.098Z,22.99
2022-08-14T21:20:26.288Z,22.84
2022-08-14T21:23:32.838Z,22.97
2022-08-14T21:26:51.507Z,23.06
2022-08-14T21:29:57.823Z,23.13
2022-08-14T21:33:01.305Z,22.63
2022-08-14T21:36:09.912Z,22.40
2022-08-14T21:39:17.707Z,22.42
2022-08-14T21:42:20.288Z,22.08
2022-08-14T21:45:23.058Z,22.26
2022-08-14T21:48:30.137Z,22.38
2022-08-14T21:51:55.346Z,22.60
2022-08-14T21:54:55.651Z,22.71
2022-08-14T21:58:52.745Z,22.65
2022-08-14T22:01:21.665Z,22.41
2022-08-14T22:04:32.836Z,22.15
2022-08-14T22:07:36.784Z,21.90
2022-08-14T22:10:44.702Z,21.96
2022-08-14T22:13:48.963Z,21.94
2022-08-14T22:17:01.943Z,21.57
2022-08-14T22:20:16.284Z,21.62
2022-08-14T22:23:19.434Z,21.59
2022-08-14T22:26:22.350Z,21.94
2022-08-14T22:29:33.339Z,21.91
2022-08-14T22:32:56.930Z,22.03
2022-08-14T22:36:00.590Z,22.06
2022-08-14T22:39:03.245Z,22.40
2022-08-14T22:42:19.320Z,22.17
2022-08-14T22:45:23.956Z,21.69
2022-08-14T22:48:26.040Z,21.17
2022-08-14T22:51:31.676Z,21.21
2022-08-14T22:54:52.566Z,21.36
2022-08-14T22:57:55.814Z,21.05
2022-08-14T23:01:01.323Z,21.19
2022-08-14T23:04:04.788Z,21.24
2022-08-14T23:07:22.125Z,21.72
2022-08-14T23:10:32.074Z,21.69
2022-08-14T23:13:38.875Z,21.38
2022-08-14T23:16:42.559Z,21.35
2022-08-14T23:19:45.210Z,21.17
2022-08-14T23:22:50.514Z,21.16
2022-08-14T23:25:59.656Z,21.33
2022-08-14T23:29:04.279Z,21.29
2022-08-14T23:32:06.668Z,21.65
2022-08-14T23:35:28.716Z,21.51
2022-08-14T23:38:35.438Z,21.69
2022-08-14T23:41:46.992Z,21.93
2022-08-14T23:44:55.646Z,21.94
2022-08-14T23:48:02.208Z,22.02
2022-08-14T23:51:04.486Z,22.33
2022-08-14T23:54:47.386Z,22.58
2022-08-14T23:57:30.540Z,22.76
